»·PEaware :: UAL13 KLAX-PHNL

UAL13 :: KLAX-PHNL

FLIGHT INFORMATION

Flight Status: Arrived
Operator:
United Airlines
More flights by this operator :: More flights under this callsign
Pilot: Damien Oxier (2415)
Aircraft: BOEING 747-400 (NO WINGLETS)
(B74D)
More flights by this aircraft type
Origin: KLAX Los Angeles Intl
United States
Destination: PHNL Honolulu Intl
United States
More flights between these airports :: More routes between these airports
Route: PRCH9 DINTY R576 DENNS MAGGI3
File this flight plan on PilotEdge
Remarks: full home cockpit running prepar3d / V /
Altitude:
(Current/Filed)
38,000ft
Speed:
(Current/Filed)
350kts
Departed: 22-Sep-13 10:53 PM
Arrived: 23-Sep-13 06:23 AM
Distance/Time
Traveled:
2217nm/7:30
Distance/Time
To Go:
Arrived

Flight Plot

Page will automatically refresh every two minutes.


Map Options




Map Legend


Flown Route
Filed Route
Departure Airport
Arrival Airport
Navaid (VOR, NDB)
Fix

Horizontal Profiles

Position Reports

Time Latitude Longitude Heading Altitude Ground
Speed
22-Sep-13 22:31 33.940473 -118.399054 350 142ft 0kts
22-Sep-13 22:32 33.940473 -118.399054 350 142ft 0kts
22-Sep-13 22:33 33.940473 -118.399054 350 142ft 0kts
22-Sep-13 22:34 33.940473 -118.399054 350 142ft 0kts
22-Sep-13 22:35 33.940473 -118.399054 350 142ft 0kts
22-Sep-13 22:36 33.940473 -118.399054 350 142ft 0kts
22-Sep-13 22:37 33.940473 -118.399054 350 142ft 0kts
22-Sep-13 22:38 33.940473 -118.399054 350 142ft 0kts
22-Sep-13 22:39 33.940473 -118.399054 350 142ft 0kts
22-Sep-13 22:40 33.940473 -118.399054 350 142ft 0kts
22-Sep-13 22:41 33.940473 -118.399054 350 142ft 0kts
22-Sep-13 22:42 33.940473 -118.399054 350 142ft 0kts
22-Sep-13 22:43 33.940473 -118.399054 350 142ft 0kts
22-Sep-13 22:44 33.940297 -118.399018 350 142ft 2kts
22-Sep-13 22:45 33.940180 -118.398994 350 142ft 0kts
22-Sep-13 22:46 33.939713 -118.398157 155 142ft 7kts
22-Sep-13 22:47 33.939481 -118.394085 84 142ft 21kts
22-Sep-13 22:48 33.940722 -118.385001 99 142ft 20kts
22-Sep-13 22:49 33.940692 -118.381038 88 142ft 13kts
22-Sep-13 22:50 33.940579 -118.380395 137 142ft 0kts
22-Sep-13 22:51 33.938446 -118.395427 262 143ft 158kts
22-Sep-13 22:52 33.930176 -118.474086 263 1541ft 246kts
22-Sep-13 22:53 33.921828 -118.543339 264 3037ft 259kts
22-Sep-13 22:54 33.912511 -118.646880 264 5161ft 269kts
22-Sep-13 22:55 33.903294 -118.721592 262 6669ft 270kts
22-Sep-13 22:56 33.892327 -118.811354 268 8484ft 269kts
22-Sep-13 22:57 33.889353 -118.904778 266 10348ft 316kts
22-Sep-13 22:58 33.880255 -119.029803 263 12482ft 427kts
22-Sep-13 22:59 33.867012 -119.172681 263 14888ft 427kts
22-Sep-13 23:00 33.852594 -119.319624 263 17336ft 441kts
22-Sep-13 23:01 33.837877 -119.467843 262 19745ft 449kts
22-Sep-13 23:02 33.822641 -119.618774 262 22153ft 452kts
22-Sep-13 23:03 33.807558 -119.766197 262 24541ft 434kts
22-Sep-13 23:04 33.792810 -119.907501 262 26926ft 415kts
22-Sep-13 23:05 33.778617 -120.041380 263 29299ft 392kts
22-Sep-13 23:06 33.765752 -120.166703 259 31671ft 360kts
22-Sep-13 23:07 33.753639 -120.281361 258 33557ft 339kts
22-Sep-13 23:08 33.740989 -120.393814 258 34770ft 337kts
22-Sep-13 23:09 33.728614 -120.504918 259 35964ft 331kts
22-Sep-13 23:10 33.716747 -120.612539 259 37146ft 319kts
22-Sep-13 23:11 33.705274 -120.716597 259 37887ft 314kts
22-Sep-13 23:12 33.693409 -120.822933 259 37907ft 327kts
22-Sep-13 23:13 33.680878 -120.933960 259 37906ft 342kts
22-Sep-13 23:14 33.667748 -121.049433 259 37906ft 357kts
22-Sep-13 23:15 33.653938 -121.170078 259 37906ft 370kts
22-Sep-13 23:16 33.639616 -121.294375 259 37905ft 379kts
22-Sep-13 23:17 33.625045 -121.420002 259 37902ft 374kts
22-Sep-13 23:18 33.610964 -121.540640 259 37901ft 356kts
22-Sep-13 23:19 33.597710 -121.652604 259 37903ft 351kts
22-Sep-13 23:20 33.583810 -121.768827 259 37904ft 352kts
22-Sep-13 23:21 33.569760 -121.885427 259 37904ft 353kts
22-Sep-13 23:22 33.555544 -122.002535 259 37904ft 354kts
22-Sep-13 23:23 33.541264 -122.119268 259 37904ft 354kts
22-Sep-13 23:24 33.526819 -122.236372 258 37904ft 354kts
22-Sep-13 23:25 33.512293 -122.353076 258 37904ft 353kts
22-Sep-13 23:26 33.497634 -122.469670 258 37904ft 353kts
22-Sep-13 23:27 33.481308 -122.585463 256 37904ft 352kts
22-Sep-13 23:28 33.459192 -122.700130 254 37904ft 352kts
22-Sep-13 23:29 33.435727 -122.814350 254 37904ft 352kts
22-Sep-13 23:30 33.411973 -122.928437 254 37904ft 352kts
22-Sep-13 23:31 33.388161 -123.042096 254 37904ft 352kts
22-Sep-13 23:32 33.364179 -123.155979 254 37904ft 352kts
22-Sep-13 23:33 33.340099 -123.269764 254 37904ft 352kts
22-Sep-13 23:34 33.315991 -123.383131 254 37904ft 352kts
22-Sep-13 23:35 33.291709 -123.496769 254 37903ft 351kts
22-Sep-13 23:36 33.268205 -123.606409 254 37899ft 327kts
22-Sep-13 23:37 33.245876 -123.710089 254 37903ft 318kts
22-Sep-13 23:38 33.223759 -123.812238 254 37904ft 318kts
22-Sep-13 23:39 33.201343 -123.915257 254 37904ft 321kts
22-Sep-13 23:40 33.178634 -124.019157 253 37904ft 323kts
22-Sep-13 23:41 33.155773 -124.123320 253 37904ft 323kts
22-Sep-13 23:42 33.132898 -124.227133 253 37903ft 322kts
22-Sep-13 23:43 33.110111 -124.330118 253 37904ft 321kts
22-Sep-13 23:44 33.087180 -124.433310 253 37904ft 321kts
22-Sep-13 23:45 33.064127 -124.536601 253 37904ft 322kts
22-Sep-13 23:46 33.040964 -124.639941 253 37904ft 322kts
22-Sep-13 23:47 33.017793 -124.742893 253 37904ft 322kts
22-Sep-13 23:48 32.994456 -124.846153 253 37903ft 321kts
22-Sep-13 23:49 32.971861 -124.946039 253 37904ft 307kts
22-Sep-13 23:50 32.949462 -125.044438 253 37904ft 307kts
22-Sep-13 23:51 32.930723 -125.126397 253 37904ft 306kts
22-Sep-13 23:52 32.904490 -125.240689 253 37904ft 306kts
22-Sep-13 23:53 32.885756 -125.321989 253 37904ft 306kts
22-Sep-13 23:54 32.863123 -125.419854 253 37904ft 306kts
22-Sep-13 23:55 32.840909 -125.517499 254 37904ft 307kts
22-Sep-13 23:56 32.819665 -125.615967 252 37904ft 306kts
22-Sep-13 23:57 32.795641 -125.713411 252 37904ft 306kts
22-Sep-13 23:58 32.768228 -125.827155 253 37904ft 306kts
22-Sep-13 23:59 32.748938 -125.908261 253 37904ft 306kts
23-Sep-13 00:09 32.514484 -126.881927 252 37904ft 306kts
23-Sep-13 00:10 32.490713 -126.978696 252 37904ft 306kts
23-Sep-13 00:11 32.466793 -127.075722 252 37904ft 306kts
23-Sep-13 00:12 32.442803 -127.172677 252 37904ft 306kts
23-Sep-13 00:13 32.418812 -127.269285 252 37904ft 306kts
23-Sep-13 00:14 32.394656 -127.366209 252 37904ft 306kts
23-Sep-13 00:15 32.370459 -127.462946 252 37904ft 306kts
23-Sep-13 00:16 32.346236 -127.559446 252 37904ft 306kts
23-Sep-13 00:17 32.321878 -127.656134 252 37904ft 306kts
23-Sep-13 00:18 32.297444 -127.752782 252 37904ft 306kts
23-Sep-13 00:19 32.273018 -127.849055 252 37904ft 306kts
23-Sep-13 00:20 32.248442 -127.945577 252 37904ft 306kts
23-Sep-13 00:21 32.223798 -128.042029 252 37904ft 306kts
23-Sep-13 00:22 32.199141 -128.138192 252 37904ft 306kts
23-Sep-13 00:23 32.174343 -128.234569 252 37904ft 306kts
23-Sep-13 00:24 32.149226 -128.331845 252 37904ft 306kts
23-Sep-13 00:25 32.124300 -128.428044 252 37904ft 306kts
23-Sep-13 00:26 32.099350 -128.524002 252 37904ft 306kts
23-Sep-13 00:27 32.074282 -128.620084 252 37904ft 306kts
23-Sep-13 00:28 32.049124 -128.716178 252 37904ft 306kts
23-Sep-13 00:29 32.023877 -128.812285 252 37904ft 306kts
23-Sep-13 00:30 31.998661 -128.907949 252 37904ft 306kts
23-Sep-13 00:31 31.973290 -129.003871 252 37904ft 306kts
23-Sep-13 00:32 31.947851 -129.099724 251 37904ft 306kts
23-Sep-13 00:33 31.922417 -129.195238 251 37904ft 306kts
23-Sep-13 00:34 31.896825 -129.291023 251 37904ft 306kts
23-Sep-13 00:35 31.871254 -129.386405 251 37904ft 306kts
23-Sep-13 00:36 31.845531 -129.482040 251 37904ft 306kts
23-Sep-13 00:37 31.819725 -129.577661 251 37904ft 306kts
23-Sep-13 00:38 31.793852 -129.673210 251 37904ft 306kts
23-Sep-13 00:39 31.767999 -129.768374 251 37904ft 306kts
23-Sep-13 00:40 31.741992 -129.863786 251 37904ft 306kts
23-Sep-13 00:41 31.715993 -129.958858 251 37904ft 306kts
23-Sep-13 00:42 31.689847 -130.054156 251 37904ft 306kts
23-Sep-13 00:43 31.663621 -130.149432 251 37904ft 306kts
23-Sep-13 00:44 31.637337 -130.244609 251 37904ft 306kts
23-Sep-13 00:45 31.611062 -130.339445 251 37904ft 306kts
23-Sep-13 00:46 31.584629 -130.434544 251 37904ft 306kts
23-Sep-13 00:47 31.562261 -130.514776 251 37904ft 306kts
23-Sep-13 00:48 31.531292 -130.625507 251 37904ft 306kts
23-Sep-13 00:49 31.509066 -130.704718 251 37904ft 306kts
23-Sep-13 00:50 31.482465 -130.799250 251 37904ft 306kts
23-Sep-13 00:51 31.451246 -130.909807 251 37904ft 306kts
23-Sep-13 00:52 31.428858 -130.988838 251 37904ft 306kts
23-Sep-13 00:53 31.401954 -131.083538 251 37904ft 306kts
23-Sep-13 00:54 31.375074 -131.177855 251 37904ft 306kts
23-Sep-13 00:55 31.348025 -131.272468 251 37904ft 306kts
23-Sep-13 00:56 31.320916 -131.366993 251 37904ft 306kts
23-Sep-13 00:57 31.293713 -131.461553 251 37904ft 306kts
23-Sep-13 00:58 31.266463 -131.555978 251 37904ft 306kts
23-Sep-13 00:59 31.239256 -131.649964 250 37904ft 306kts
23-Sep-13 01:00 31.211868 -131.744280 250 37904ft 306kts
23-Sep-13 01:01 31.184401 -131.838579 250 37904ft 306kts
23-Sep-13 01:02 31.156883 -131.932765 250 37904ft 306kts
23-Sep-13 01:03 31.129382 -132.026599 250 37904ft 306kts
23-Sep-13 01:04 31.101719 -132.120701 250 37904ft 306kts
23-Sep-13 01:05 31.073996 -132.214720 250 37904ft 306kts
23-Sep-13 01:06 31.041585 -132.324279 250 37904ft 306kts
23-Sep-13 01:07 31.018330 -132.402648 250 37904ft 306kts
23-Sep-13 01:08 30.990499 -132.496179 250 37904ft 306kts
23-Sep-13 01:09 30.962502 -132.589987 250 37904ft 306kts
23-Sep-13 01:10 30.934436 -132.683744 250 37904ft 306kts
23-Sep-13 01:11 30.906403 -132.777109 250 37904ft 306kts
23-Sep-13 01:12 30.878205 -132.870748 250 37904ft 306kts
23-Sep-13 01:13 30.849941 -132.964327 250 37904ft 306kts
23-Sep-13 01:14 30.821703 -133.057540 250 37904ft 306kts
23-Sep-13 01:15 30.793304 -133.151009 250 37904ft 306kts
23-Sep-13 01:16 30.764842 -133.244410 250 37904ft 306kts
23-Sep-13 01:17 30.736411 -133.337439 249 37904ft 306kts
23-Sep-13 01:18 30.707817 -133.430725 249 37904ft 306kts
23-Sep-13 01:19 30.679152 -133.523970 249 37904ft 305kts
23-Sep-13 01:20 30.650506 -133.616884 249 37904ft 305kts
23-Sep-13 01:21 30.621712 -133.710005 249 37904ft 305kts
23-Sep-13 01:22 30.592852 -133.803073 249 37904ft 305kts
23-Sep-13 01:23 30.564041 -133.895714 249 37904ft 305kts
23-Sep-13 01:24 30.535049 -133.988668 249 37904ft 305kts
23-Sep-13 01:25 30.505988 -134.081578 249 37904ft 305kts
23-Sep-13 01:26 30.476964 -134.174106 249 37904ft 305kts
23-Sep-13 01:27 30.447772 -134.266902 249 37904ft 305kts
23-Sep-13 01:28 30.418522 -134.359621 249 37904ft 305kts
23-Sep-13 01:29 30.389302 -134.451981 249 37904ft 305kts
23-Sep-13 01:30 30.359918 -134.544599 249 37904ft 305kts
23-Sep-13 01:31 30.330464 -134.637177 249 37904ft 305kts
23-Sep-13 01:32 30.300956 -134.729663 249 37904ft 305kts
23-Sep-13 01:33 30.271477 -134.821800 249 37904ft 305kts
23-Sep-13 01:34 30.241835 -134.914187 249 37904ft 305kts
23-Sep-13 01:35 30.212129 -135.006519 249 37904ft 305kts
23-Sep-13 01:36 30.182452 -135.098503 249 37904ft 305kts
23-Sep-13 01:37 30.152615 -135.190726 249 37904ft 305kts
23-Sep-13 01:38 30.122719 -135.282879 249 37904ft 305kts
23-Sep-13 01:39 30.092867 -135.374644 249 37904ft 305kts
23-Sep-13 01:40 30.062819 -135.466757 249 37904ft 305kts
23-Sep-13 01:41 30.032729 -135.558750 249 37904ft 305kts
23-Sep-13 01:42 30.002678 -135.650370 249 37904ft 305kts
23-Sep-13 01:43 29.972479 -135.742196 249 37904ft 305kts
23-Sep-13 01:44 29.942201 -135.834011 249 37904ft 305kts
23-Sep-13 01:45 29.911944 -135.925513 249 37904ft 305kts
23-Sep-13 01:46 29.881551 -136.017179 249 37904ft 305kts
23-Sep-13 01:47 29.851078 -136.108843 248 37904ft 305kts
23-Sep-13 01:48 29.820643 -136.200144 248 37904ft 305kts
23-Sep-13 01:49 29.790041 -136.291702 248 37904ft 305kts
23-Sep-13 01:50 29.759381 -136.383187 248 37904ft 305kts
23-Sep-13 01:51 29.728767 -136.474294 248 37904ft 305kts
23-Sep-13 01:52 29.698003 -136.565606 248 37904ft 305kts
23-Sep-13 01:53 29.667150 -136.656942 248 37904ft 305kts
23-Sep-13 01:54 29.636348 -136.747883 248 37904ft 305kts
23-Sep-13 01:55 29.610537 -136.823906 248 37904ft 305kts
23-Sep-13 01:56 29.574344 -136.930230 248 37904ft 305kts
23-Sep-13 01:57 29.543371 -137.020960 248 37904ft 305kts
23-Sep-13 01:58 29.517386 -137.096897 248 37904ft 305kts
23-Sep-13 01:59 29.486185 -137.187861 248 37904ft 305kts
23-Sep-13 02:00 29.455025 -137.278469 248 37904ft 305kts
23-Sep-13 02:01 29.423682 -137.369374 248 37904ft 305kts
23-Sep-13 02:02 29.392295 -137.460172 248 37904ft 305kts
23-Sep-13 02:03 29.360941 -137.550642 248 37904ft 305kts
23-Sep-13 02:04 29.329433 -137.641325 248 37904ft 305kts
23-Sep-13 02:05 29.297855 -137.731974 248 37904ft 305kts
23-Sep-13 02:06 29.266345 -137.822200 248 37904ft 305kts
23-Sep-13 02:07 29.234645 -137.912739 248 37904ft 305kts
23-Sep-13 02:08 29.202892 -138.003198 248 37904ft 305kts
23-Sep-13 02:09 29.171065 -138.093639 248 37904ft 305kts
23-Sep-13 02:10 29.139296 -138.183689 248 37904ft 305kts
23-Sep-13 02:11 29.107356 -138.273995 248 37904ft 305kts
23-Sep-13 02:12 29.075360 -138.364232 248 37904ft 305kts
23-Sep-13 02:13 29.043320 -138.454368 248 37904ft 305kts
23-Sep-13 02:14 29.000510 -138.574453 248 37904ft 305kts
23-Sep-13 02:15 28.979116 -138.634313 248 37904ft 305kts
23-Sep-13 02:16 28.946881 -138.724323 248 37904ft 305kts
23-Sep-13 02:17 28.914584 -138.814284 248 37904ft 305kts
23-Sep-13 02:18 28.882233 -138.904172 247 37904ft 305kts
23-Sep-13 02:19 28.849939 -138.993681 247 37904ft 305kts
23-Sep-13 02:20 28.817468 -139.083459 247 37904ft 305kts
23-Sep-13 02:21 28.784914 -139.173250 247 37904ft 305kts
23-Sep-13 02:22 28.752346 -139.262856 247 37904ft 305kts
23-Sep-13 02:23 28.719693 -139.352477 247 37904ft 305kts
23-Sep-13 02:24 28.687091 -139.441743 247 37904ft 305kts
23-Sep-13 02:25 28.654303 -139.531301 247 37904ft 305kts
23-Sep-13 02:26 28.621477 -139.620746 247 37904ft 305kts
23-Sep-13 02:27 28.588589 -139.710144 247 37904ft 305kts
23-Sep-13 02:28 28.555751 -139.799192 247 37904ft 305kts
23-Sep-13 02:29 28.522772 -139.888409 247 37904ft 305kts
23-Sep-13 02:30 28.489708 -139.977643 247 37904ft 305kts
23-Sep-13 02:31 28.456581 -140.066832 247 37904ft 305kts
23-Sep-13 02:32 28.423404 -140.155944 247 37904ft 305kts
23-Sep-13 02:33 28.390162 -140.245018 247 37904ft 305kts
23-Sep-13 02:34 28.356980 -140.333724 247 37904ft 305kts
23-Sep-13 02:35 28.323651 -140.422610 247 37904ft 305kts
23-Sep-13 02:36 28.290239 -140.511510 247 37904ft 305kts
23-Sep-13 02:37 28.256875 -140.600073 247 37904ft 305kts
23-Sep-13 02:38 28.223348 -140.688861 247 37904ft 305kts
23-Sep-13 02:39 28.189771 -140.777575 247 37904ft 305kts
23-Sep-13 02:40 28.156138 -140.866231 247 37904ft 305kts
23-Sep-13 02:41 28.122442 -140.954845 247 37904ft 305kts
23-Sep-13 02:42 28.088810 -141.043086 247 37904ft 305kts
23-Sep-13 02:43 28.055019 -141.131543 247 37904ft 305kts
23-Sep-13 02:44 28.021129 -141.220051 247 37904ft 305kts
23-Sep-13 02:45 27.987227 -141.308391 247 37904ft 305kts
23-Sep-13 02:46 27.953363 -141.396426 247 37904ft 305kts
23-Sep-13 02:47 27.919218 -141.484992 247 37904ft 305kts
23-Sep-13 02:48 27.885228 -141.572953 247 37904ft 305kts
23-Sep-13 02:49 27.851084 -141.661115 247 37904ft 305kts
23-Sep-13 02:50 27.816884 -141.749219 246 37904ft 305kts
23-Sep-13 02:51 27.782642 -141.837230 246 37904ft 305kts
23-Sep-13 02:52 27.748338 -141.925204 246 37904ft 305kts
23-Sep-13 02:53 27.714082 -142.012858 246 37904ft 305kts
23-Sep-13 02:54 27.679642 -142.100786 246 37904ft 305kts
23-Sep-13 02:55 27.645186 -142.188558 246 37904ft 305kts
23-Sep-13 02:56 27.610631 -142.276383 246 37904ft 305kts
23-Sep-13 02:57 27.576160 -142.363802 246 37904ft 305kts
23-Sep-13 02:58 27.547296 -142.436854 246 37904ft 305kts
23-Sep-13 02:59 27.506825 -142.539052 246 37904ft 305kts
23-Sep-13 03:00 27.472082 -142.626579 246 37904ft 305kts
23-Sep-13 03:01 27.443069 -142.699521 246 37904ft 305kts
23-Sep-13 03:02 27.408308 -142.786738 246 37904ft 305kts
23-Sep-13 03:03 27.373423 -142.874075 246 37904ft 305kts
23-Sep-13 03:04 27.338440 -142.961466 246 37904ft 305kts
23-Sep-13 03:05 27.303451 -143.048683 246 37904ft 305kts
23-Sep-13 03:06 27.268355 -143.135975 246 37904ft 305kts
23-Sep-13 03:07 27.233231 -143.223147 246 37904ft 305kts
23-Sep-13 03:08 27.198056 -143.310257 246 37904ft 305kts
23-Sep-13 03:09 27.162943 -143.397026 246 37904ft 305kts
23-Sep-13 03:10 27.127667 -143.484011 246 37904ft 305kts
23-Sep-13 03:11 27.092332 -143.570955 246 37904ft 305kts
23-Sep-13 03:12 27.056945 -143.657840 246 37904ft 305kts
23-Sep-13 03:13 27.021609 -143.744414 246 37904ft 305kts
23-Sep-13 03:14 26.986113 -143.831196 246 37904ft 305kts
23-Sep-13 03:15 26.950561 -143.917929 246 37904ft 305kts
23-Sep-13 03:16 26.914961 -144.004597 246 37904ft 305kts
23-Sep-13 03:17 26.879418 -144.090942 246 37904ft 305kts
23-Sep-13 03:18 26.843714 -144.177497 246 37904ft 305kts
23-Sep-13 03:19 26.807943 -144.264030 246 37904ft 305kts
23-Sep-13 03:20 26.772120 -144.350509 246 37904ft 305kts
23-Sep-13 03:21 26.736389 -144.436584 246 37904ft 305kts
23-Sep-13 03:22 26.700444 -144.522997 246 37904ft 305kts
23-Sep-13 03:23 26.664469 -144.609299 246 37904ft 305kts
23-Sep-13 03:24 26.628465 -144.695493 245 37904ft 305kts
23-Sep-13 03:25 26.592489 -144.781442 245 37904ft 305kts
23-Sep-13 03:26 26.556369 -144.867556 245 37904ft 305kts
23-Sep-13 03:27 26.520180 -144.953657 245 37904ft 305kts
23-Sep-13 03:28 26.483950 -145.039678 245 37904ft 305kts
23-Sep-13 03:29 26.447686 -145.125606 245 37904ft 305kts
23-Sep-13 03:30 26.411475 -145.211231 245 37904ft 305kts
23-Sep-13 03:31 26.375061 -145.297162 245 37904ft 305kts
23-Sep-13 03:32 26.338631 -145.382953 245 37904ft 305kts
23-Sep-13 03:33 26.302137 -145.468723 245 37904ft 305kts
23-Sep-13 03:34 26.265715 -145.554150 245 37904ft 305kts
23-Sep-13 03:35 26.229132 -145.639782 245 37904ft 305kts
23-Sep-13 03:36 26.192487 -145.725387 245 37904ft 305kts
23-Sep-13 03:37 26.155811 -145.810891 245 37904ft 305kts
23-Sep-13 03:38 26.119073 -145.896369 245 37904ft 305kts
23-Sep-13 03:39 26.082279 -145.981808 245 37904ft 305kts
23-Sep-13 03:40 26.045537 -146.066954 245 37904ft 305kts
23-Sep-13 03:41 26.008639 -146.152293 245 37904ft 305kts
23-Sep-13 03:42 25.971702 -146.237552 245 37904ft 305kts
23-Sep-13 03:43 25.934726 -146.322731 245 37904ft 305kts
23-Sep-13 03:44 25.897654 -146.407965 245 37904ft 305kts
23-Sep-13 03:45 25.860561 -146.493078 245 37904ft 305kts
23-Sep-13 03:46 25.823548 -146.577842 245 37904ft 305kts
23-Sep-13 03:47 25.786347 -146.662871 245 37904ft 305kts
23-Sep-13 03:48 25.749108 -146.747819 245 37904ft 305kts
23-Sep-13 03:49 25.711935 -146.832451 245 37904ft 305kts
23-Sep-13 03:50 25.674344 -146.917870 245 37904ft 305kts
23-Sep-13 03:51 25.636955 -147.002665 245 37904ft 305kts
23-Sep-13 03:52 25.599526 -147.087385 245 37904ft 305kts
23-Sep-13 03:53 25.562040 -147.172072 245 37904ft 305kts
23-Sep-13 03:54 25.524614 -147.256459 245 37904ft 305kts
23-Sep-13 03:55 25.487023 -147.341058 245 37904ft 305kts
23-Sep-13 03:56 25.455660 -147.411516 245 37904ft 305kts
23-Sep-13 03:57 25.411727 -147.510025 245 37904ft 305kts
23-Sep-13 03:58 25.380387 -147.580165 245 37904ft 305kts
23-Sep-13 03:59 25.336320 -147.678600 245 37904ft 305kts
23-Sep-13 04:00 25.298497 -147.762914 245 37904ft 305kts
23-Sep-13 04:01 25.260635 -147.847154 244 37904ft 305kts
23-Sep-13 04:02 25.222713 -147.931370 244 37904ft 305kts
23-Sep-13 04:03 25.184858 -148.015280 244 37904ft 305kts
23-Sep-13 04:04 25.146830 -148.099416 244 37904ft 305kts
23-Sep-13 04:05 25.108754 -148.183500 244 37904ft 305kts
23-Sep-13 04:06 25.070647 -148.267494 244 37904ft 305kts
23-Sep-13 04:07 25.032479 -148.351468 244 37904ft 305kts
23-Sep-13 04:08 24.994273 -148.435370 244 37904ft 305kts
23-Sep-13 04:09 24.956142 -148.518950 244 37904ft 305kts
23-Sep-13 04:10 24.917841 -148.602750 244 37904ft 305kts
23-Sep-13 04:11 24.879495 -148.686495 244 37904ft 305kts
23-Sep-13 04:12 24.841080 -148.770235 244 37904ft 305kts
23-Sep-13 04:13 24.802640 -148.853877 244 37904ft 305kts
23-Sep-13 04:14 24.764145 -148.937483 244 37904ft 305kts
23-Sep-13 04:15 24.725733 -149.020760 244 37904ft 305kts
23-Sep-13 04:16 24.687159 -149.104236 244 37904ft 305kts
23-Sep-13 04:17 24.648528 -149.187682 244 37904ft 305kts
23-Sep-13 04:18 24.609858 -149.271063 244 37904ft 305kts
23-Sep-13 04:19 24.571124 -149.354429 244 37904ft 305kts
23-Sep-13 04:20 24.532483 -149.437448 244 37904ft 305kts
23-Sep-13 04:21 24.493654 -149.520720 244 37904ft 305kts
23-Sep-13 04:22 24.454799 -149.603899 244 37904ft 305kts
23-Sep-13 04:23 24.415884 -149.687057 244 37904ft 305kts
23-Sep-13 04:24 24.377069 -149.769855 244 37904ft 305kts
23-Sep-13 04:25 24.338066 -149.852906 244 37904ft 305kts
23-Sep-13 04:26 24.299017 -149.935909 244 37904ft 305kts
23-Sep-13 04:27 24.259933 -150.018837 243 37904ft 305kts
23-Sep-13 04:28 24.220823 -150.101676 243 37904ft 305kts
23-Sep-13 04:29 24.181769 -150.184249 243 37904ft 305kts
23-Sep-13 04:30 24.142539 -150.267050 243 37904ft 305kts
23-Sep-13 04:31 24.103264 -150.349802 243 37904ft 305kts
23-Sep-13 04:32 24.063950 -150.432492 243 37904ft 305kts
23-Sep-13 04:33 24.024587 -150.515137 243 37904ft 305kts
23-Sep-13 04:34 23.985319 -150.597444 243 37904ft 305kts
23-Sep-13 04:35 23.945858 -150.680011 243 37904ft 305kts
23-Sep-13 04:36 23.906379 -150.762473 243 37904ft 305kts
23-Sep-13 04:37 23.866834 -150.844930 243 37904ft 305kts
23-Sep-13 04:38 23.833984 -150.913319 243 37904ft 305kts
23-Sep-13 04:39 23.787762 -151.009382 243 37904ft 305kts
23-Sep-13 04:40 23.754699 -151.077980 243 37904ft 305kts
23-Sep-13 04:41 23.715123 -151.159961 243 37904ft 305kts
23-Sep-13 04:42 23.675381 -151.242148 243 37904ft 305kts
23-Sep-13 04:43 23.635583 -151.324311 243 37904ft 305kts
23-Sep-13 04:44 23.589111 -151.420076 243 37904ft 305kts
23-Sep-13 04:45 23.556000 -151.488192 243 37904ft 305kts
23-Sep-13 04:46 23.516085 -151.570180 243 37904ft 305kts
23-Sep-13 04:47 23.476114 -151.652145 243 37904ft 305kts
23-Sep-13 04:48 23.436241 -151.733770 243 37904ft 305kts
23-Sep-13 04:49 23.396185 -151.815635 243 37904ft 305kts
23-Sep-13 04:50 23.356092 -151.897438 243 37904ft 305kts
23-Sep-13 04:51 23.315418 -151.980288 243 37904ft 305kts
23-Sep-13 04:52 23.275242 -152.061987 243 37904ft 305kts
23-Sep-13 04:53 23.235141 -152.143399 243 37904ft 305kts
23-Sep-13 04:54 23.194869 -152.225022 243 37904ft 305kts
23-Sep-13 04:55 23.154561 -152.306586 243 37904ft 305kts
23-Sep-13 04:56 23.114352 -152.387813 243 37904ft 305kts
23-Sep-13 04:57 23.073943 -152.469312 243 37904ft 305kts
23-Sep-13 04:58 23.033512 -152.550721 243 37904ft 305kts
23-Sep-13 04:59 22.993193 -152.631773 243 37904ft 305kts
23-Sep-13 05:00 22.952674 -152.713095 243 37904ft 305kts
23-Sep-13 05:01 22.912106 -152.794383 243 37904ft 305kts
23-Sep-13 05:02 22.871635 -152.875346 243 37904ft 305kts
23-Sep-13 05:03 22.830972 -152.956560 243 37904ft 305kts
23-Sep-13 05:04 22.790286 -153.037690 243 37904ft 305kts
23-Sep-13 05:05 22.749583 -153.118721 243 37904ft 305kts
23-Sep-13 05:06 22.708947 -153.199491 243 37904ft 305kts
23-Sep-13 05:07 22.668135 -153.280478 243 37904ft 305kts
23-Sep-13 05:08 22.627284 -153.361411 243 37904ft 305kts
23-Sep-13 05:09 22.586512 -153.442057 242 37904ft 305kts
23-Sep-13 05:10 22.545576 -153.522895 242 37904ft 305kts
23-Sep-13 05:11 22.504588 -153.603701 242 37904ft 305kts
23-Sep-13 05:12 22.463707 -153.684156 242 37904ft 305kts
23-Sep-13 05:13 22.422626 -153.764851 242 37904ft 305kts
23-Sep-13 05:14 22.381668 -153.845566 245 37901ft 305kts
23-Sep-13 05:15 22.367389 -153.935732 263 37907ft 309kts
23-Sep-13 05:16 22.367288 -154.029196 265 37904ft 310kts
23-Sep-13 05:17 22.368998 -154.122708 266 37904ft 310kts
23-Sep-13 05:18 22.370870 -154.216172 266 37904ft 310kts
23-Sep-13 05:19 22.372705 -154.309388 266 37904ft 310kts
23-Sep-13 05:20 22.374493 -154.402886 266 37904ft 310kts
23-Sep-13 05:21 22.376227 -154.496423 266 37904ft 310kts
23-Sep-13 05:22 22.377906 -154.589913 266 37904ft 310kts
23-Sep-13 05:23 22.379531 -154.683421 265 37904ft 310kts
23-Sep-13 05:24 22.381097 -154.776601 265 37904ft 310kts
23-Sep-13 05:25 22.382615 -154.870109 265 37904ft 310kts
23-Sep-13 05:26 22.384078 -154.963587 265 37904ft 310kts
23-Sep-13 05:27 22.385487 -155.057073 265 37904ft 310kts
23-Sep-13 05:28 22.386842 -155.150546 265 37904ft 310kts
23-Sep-13 05:29 22.388138 -155.243665 265 37904ft 310kts
23-Sep-13 05:30 22.389385 -155.337138 265 37904ft 310kts
23-Sep-13 05:31 22.390578 -155.430623 265 37904ft 310kts
23-Sep-13 05:32 22.391715 -155.524075 265 37904ft 310kts
23-Sep-13 05:33 22.392798 -155.617491 265 37904ft 310kts
23-Sep-13 05:34 22.393822 -155.710635 265 37904ft 310kts
23-Sep-13 05:35 22.394794 -155.804112 265 37904ft 310kts
23-Sep-13 05:36 22.395708 -155.897546 265 37904ft 310kts
23-Sep-13 05:37 22.396561 -155.990975 265 37904ft 310kts
23-Sep-13 05:38 22.397346 -156.084088 265 37904ft 310kts
23-Sep-13 05:39 22.398048 -156.177509 265 37904ft 310kts
23-Sep-13 05:40 22.378425 -156.265769 242 37908ft 306kts
23-Sep-13 05:41 22.335242 -156.327696 234 37905ft 310kts
23-Sep-13 05:42 22.279340 -156.398943 234 37903ft 309kts
23-Sep-13 05:43 22.223293 -156.471051 234 37904ft 308kts
23-Sep-13 05:44 22.168222 -156.542379 234 37904ft 308kts
23-Sep-13 05:45 22.113338 -156.613531 234 37904ft 308kts
23-Sep-13 05:46 22.058276 -156.684848 234 37904ft 308kts
23-Sep-13 05:47 22.003218 -156.756063 234 37904ft 308kts
23-Sep-13 05:48 21.947380 -156.828285 234 36577ft 314kts
23-Sep-13 05:49 21.892029 -156.899463 233 34951ft 303kts
23-Sep-13 05:50 21.839433 -156.967157 233 33436ft 289kts
23-Sep-13 05:51 21.788011 -157.033646 231 31923ft 289kts
23-Sep-13 05:52 21.735531 -157.100989 235 30410ft 297kts
23-Sep-13 05:53 21.681361 -157.170551 235 28923ft 306kts
23-Sep-13 05:54 21.627377 -157.240182 234 27431ft 299kts
23-Sep-13 05:55 21.574628 -157.307866 234 25925ft 288kts
23-Sep-13 05:56 21.523894 -157.372870 233 24422ft 278kts
23-Sep-13 05:57 21.474754 -157.435723 233 22913ft 270kts
23-Sep-13 05:58 21.427083 -157.496634 233 21415ft 264kts
23-Sep-13 05:59 21.380038 -157.556724 233 19910ft 260kts
23-Sep-13 06:00 21.333726 -157.615655 234 18404ft 256kts
23-Sep-13 06:01 21.287964 -157.674007 234 16903ft 254kts
23-Sep-13 06:02 21.221352 -157.691845 163 15371ft 295kts
23-Sep-13 06:03 21.184574 -157.614330 83 13880ft 318kts
23-Sep-13 06:04 21.235856 -157.543636 33 12419ft 296kts
23-Sep-13 06:05 21.300962 -157.494991 30 10913ft 277kts
23-Sep-13 06:06 21.363833 -157.449506 30 9415ft 266kts
23-Sep-13 06:07 21.423560 -157.406286 30 7911ft 250kts
23-Sep-13 06:08 21.479081 -157.364373 37 6399ft 238kts
23-Sep-13 06:09 21.525163 -157.314623 49 5031ft 226kts
23-Sep-13 06:10 21.565737 -157.264019 35 4869ft 227kts
23-Sep-13 06:11 21.627389 -157.280337 310 4159ft 258kts
23-Sep-13 06:12 21.621574 -157.353880 234 2964ft 273kts
23-Sep-13 06:13 21.567191 -157.411767 222 2904ft 273kts
23-Sep-13 06:14 21.511932 -157.467858 225 2904ft 272kts
23-Sep-13 06:15 21.466075 -157.532352 240 2904ft 272kts
23-Sep-13 06:16 21.420332 -157.597048 230 2999ft 274kts
23-Sep-13 06:17 21.368747 -157.657259 225 3000ft 273kts
23-Sep-13 06:18 21.314798 -157.714934 225 3041ft 274kts
23-Sep-13 06:19 21.298926 -157.780377 286 2355ft 206kts
23-Sep-13 06:20 21.307055 -157.835149 273 1175ft 164kts
23-Sep-13 06:21 21.308050 -157.860985 15 1997ft 28kts
23-Sep-13 06:22 21.337556 -157.874147 284 2795ft 209kts
23-Sep-13 06:23 21.319915 -157.918416 238 30ft 71kts

Navigation Log

Ident Type
1. KLAX Airport
2. DINTY Fix
3. DUETS Fix
4. DADIE Fix
5. DIALO Fix
6. DUSAC Fix
7. DRAYK Fix
8. DENNS Fix
9. SOLCE Fix
10. MAGGI Fix
11. BAMBO Fix
12. GRITL Fix
13. CKH Navaid
14. PHNL Airport